sensor_id;sensor_type;location;lat;lon;timestamp;pressure;altitude;pressure_sealevel;temperature;humidity
33731;BME280;22931;48.636;9.000;2023-07-08T08:25:12;96299.00;;;25.22;41.35
33731;BME280;22931;48.636;9.000;2023-07-08T08:30:20;96284.47;;;25.35;41.13
33731;BME280;22931;48.636;9.000;2023-07-08T08:35:29;96288.94;;;25.58;40.94
33731;BME280;22931;48.636;9.000;2023-07-08T08:58:25;96302.63;;;26.57;40.13
33731;BME280;22931;48.636;9.000;2023-07-08T09:03:44;96305.69;;;26.71;39.38
33731;BME280;22931;48.636;9.000;2023-07-08T09:09:01;96307.56;;;26.87;39.10
33731;BME280;22931;48.636;9.000;2023-07-08T09:14:16;96292.38;;;27.06;39.17
33731;BME280;22931;48.636;9.000;2023-07-08T09:19:31;96295.41;;;27.33;38.64
33731;BME280;22931;48.636;9.000;2023-07-08T09:24:45;96292.16;;;27.63;39.37
33731;BME280;22931;48.636;9.000;2023-07-08T09:29:57;96295.59;;;27.89;38.68
33731;BME280;22931;48.636;9.000;2023-07-08T09:35:08;96295.84;;;28.16;38.03
33731;BME280;22931;48.636;9.000;2023-07-08T09:40:23;96295.53;;;28.36;37.50
33731;BME280;22931;48.636;9.000;2023-07-08T09:45:46;96306.53;;;28.54;37.54
33731;BME280;22931;48.636;9.000;2023-07-08T09:51:01;96302.06;;;28.60;36.88
33731;BME280;22931;48.636;9.000;2023-07-08T09:56:14;96302.16;;;28.69;37.15
33731;BME280;22931;48.636;9.000;2023-07-08T10:01:26;96302.81;;;28.82;37.35
33731;BME280;22931;48.636;9.000;2023-07-08T10:06:35;96302.28;;;28.96;37.01
33731;BME280;22931;48.636;9.000;2023-07-08T10:11:50;96293.47;;;29.14;36.56
33731;BME280;22931;48.636;9.000;2023-07-08T10:17:11;96289.81;;;29.29;35.90
33731;BME280;22931;48.636;9.000;2023-07-08T10:22:37;96295.28;;;29.48;36.28
33731;BME280;22931;48.636;9.000;2023-07-08T10:28:03;96295.34;;;29.66;36.04
33731;BME280;22931;48.636;9.000;2023-07-08T10:33:41;96289.97;;;29.84;35.48
33731;BME280;22931;48.636;9.000;2023-07-08T10:55:45;96286.09;;;30.30;35.65
33731;BME280;22931;48.636;9.000;2023-07-08T11:01:00;96276.75;;;30.40;35.15
33731;BME280;22931;48.636;9.000;2023-07-08T11:06:20;96283.69;;;30.50;34.02
33731;BME280;22931;48.636;9.000;2023-07-08T11:11:36;96280.38;;;30.55;33.56
33731;BME280;22931;48.636;9.000;2023-07-08T11:16:49;96273.41;;;30.63;34.19
33731;BME280;22931;48.636;9.000;2023-07-08T11:22:00;96273.97;;;30.77;33.77
33731;BME280;22931;48.636;9.000;2023-07-08T11:27:16;96271.53;;;30.97;33.83
33731;BME280;22931;48.636;9.000;2023-07-08T11:32:31;96261.53;;;31.12;33.29
33731;BME280;22931;48.636;9.000;2023-07-08T11:37:41;96262.25;;;31.21;32.77
33731;BME280;22931;48.636;9.000;2023-07-08T11:43:00;96261.41;;;31.39;31.59
33731;BME280;22931;48.636;9.000;2023-07-08T11:48:13;96253.81;;;31.43;32.07
33731;BME280;22931;48.636;9.000;2023-07-08T11:53:45;96245.06;;;31.48;31.91
33731;BME280;22931;48.636;9.000;2023-07-08T11:59:11;96240.47;;;31.54;31.52
33731;BME280;22931;48.636;9.000;2023-07-08T12:04:26;96236.19;;;31.62;32.21
33731;BME280;22931;48.636;9.000;2023-07-08T12:09:37;96228.28;;;31.73;31.39
33731;BME280;22931;48.636;9.000;2023-07-08T12:14:48;96231.56;;;32.01;30.95
33731;BME280;22931;48.636;9.000;2023-07-08T12:19:59;96234.47;;;31.98;31.20
33731;BME280;22931;48.636;9.000;2023-07-08T12:25:13;96225.47;;;32.06;30.49
33731;BME280;22931;48.636;9.000;2023-07-08T12:30:25;96219.66;;;32.28;30.33
33731;BME280;22931;48.636;9.000;2023-07-08T12:35:35;96218.13;;;32.50;30.80
33731;BME280;22931;48.636;9.000;2023-07-08T12:40:44;96213.03;;;32.73;30.39
33731;BME280;22931;48.636;9.000;2023-07-08T12:45:54;96219.78;;;32.92;29.10
33731;BME280;22931;48.636;9.000;2023-07-08T12:51:04;96205.38;;;33.06;29.25
33731;BME280;22931;48.636;9.000;2023-07-08T12:56:12;96212.06;;;33.19;28.93
33731;BME280;22931;48.636;9.000;2023-07-08T13:01:29;96206.25;;;33.32;28.92
33731;BME280;22931;48.636;9.000;2023-07-08T13:06:39;96209.88;;;33.23;28.48
33731;BME280;22931;48.636;9.000;2023-07-08T13:11:48;96209.78;;;33.18;28.45
33731;BME280;22931;48.636;9.000;2023-07-08T13:17:00;96210.25;;;33.16;28.74
33731;BME280;22931;48.636;9.000;2023-07-08T13:22:12;96202.06;;;33.16;27.71
33731;BME280;22931;48.636;9.000;2023-07-08T13:27:24;96209.31;;;33.19;28.06
33731;BME280;22931;48.636;9.000;2023-07-08T13:32:36;96209.59;;;33.42;27.45
33731;BME280;22931;48.636;9.000;2023-07-08T13:37:47;96211.25;;;33.34;28.66
33731;BME280;22931;48.636;9.000;2023-07-08T13:42:56;96214.78;;;33.40;28.82
33731;BME280;22931;48.636;9.000;2023-07-08T13:48:19;96203.41;;;33.41;27.60
33731;BME280;22931;48.636;9.000;2023-07-08T13:53:51;96202.84;;;33.17;28.12
33731;BME280;22931;48.636;9.000;2023-07-08T13:59:05;96193.63;;;33.14;28.33
33731;BME280;22931;48.636;9.000;2023-07-08T14:04:18;96203.03;;;33.13;27.94
33731;BME280;22931;48.636;9.000;2023-07-08T14:10:09;96199.00;;;33.09;28.47
33731;BME280;22931;48.636;9.000;2023-07-08T14:15:20;96193.53;;;33.09;29.09
33731;BME280;22931;48.636;9.000;2023-07-08T14:20:31;96188.97;;;33.20;28.57
33731;BME280;22931;48.636;9.000;2023-07-08T14:25:40;96198.72;;;33.27;28.21
33731;BME280;22931;48.636;9.000;2023-07-08T14:30:51;96196.84;;;33.33;28.67
33731;BME280;22931;48.636;9.000;2023-07-08T14:36:01;96195.69;;;33.40;28.18
33731;BME280;22931;48.636;9.000;2023-07-08T14:41:10;96187.72;;;33.36;27.80
33731;BME280;22931;48.636;9.000;2023-07-08T14:46:18;96191.13;;;33.31;27.85
33731;BME280;22931;48.636;9.000;2023-07-08T14:51:29;96181.41;;;33.30;28.23
33731;BME280;22931;48.636;9.000;2023-07-08T14:56:37;96192.59;;;33.32;28.73
33731;BME280;22931;48.636;9.000;2023-07-08T15:01:46;96193.94;;;33.37;28.66
33731;BME280;22931;48.636;9.000;2023-07-08T15:06:58;96185.59;;;33.46;28.39
33731;BME280;22931;48.636;9.000;2023-07-08T15:12:10;96192.34;;;33.50;28.26
33731;BME280;22931;48.636;9.000;2023-07-08T15:17:21;96190.13;;;33.49;28.31
33731;BME280;22931;48.636;9.000;2023-07-08T15:22:34;96194.13;;;33.53;28.19
33731;BME280;22931;48.636;9.000;2023-07-08T15:27:48;96189.72;;;33.56;27.98
33731;BME280;22931;48.636;9.000;2023-07-08T15:33:00;96185.19;;;33.53;27.86
33731;BME280;22931;48.636;9.000;2023-07-08T15:38:15;96185.19;;;33.53;28.23
33731;BME280;22931;48.636;9.000;2023-07-08T15:43:26;96185.19;;;33.53;28.10
33731;BME280;22931;48.636;9.000;2023-07-08T15:48:36;96175.97;;;33.50;28.06
33731;BME280;22931;48.636;9.000;2023-07-08T15:53:48;96174.47;;;33.49;28.09
33731;BME280;22931;48.636;9.000;2023-07-08T15:58:56;96171.13;;;33.40;27.67
33731;BME280;22931;48.636;9.000;2023-07-08T16:04:04;96179.44;;;33.31;27.81
33731;BME280;22931;48.636;9.000;2023-07-08T16:09:15;96182.84;;;33.25;27.63
33731;BME280;22931;48.636;9.000;2023-07-08T16:14:24;96177.25;;;33.14;27.90
33731;BME280;22931;48.636;9.000;2023-07-08T16:19:32;96181.06;;;33.02;27.83
33731;BME280;22931;48.636;9.000;2023-07-08T16:24:44;96182.63;;;32.94;28.30
33731;BME280;22931;48.636;9.000;2023-07-08T16:29:55;96178.22;;;32.82;28.39
33731;BME280;22931;48.636;9.000;2023-07-08T16:35:03;96187.00;;;32.72;29.17
33731;BME280;22931;48.636;9.000;2023-07-08T16:40:18;96187.38;;;32.65;29.01
33731;BME280;22931;48.636;9.000;2023-07-08T16:45:26;96178.38;;;32.58;29.02
33731;BME280;22931;48.636;9.000;2023-07-08T16:50:35;96173.19;;;32.60;29.08
33731;BME280;22931;48.636;9.000;2023-07-08T16:55:47;96166.03;;;32.63;28.76
33731;BME280;22931;48.636;9.000;2023-07-08T17:00:55;96171.69;;;32.59;28.48
33731;BME280;22931;48.636;9.000;2023-07-08T17:06:04;96168.56;;;32.52;29.10
33731;BME280;22931;48.636;9.000;2023-07-08T17:11:15;96165.00;;;32.46;29.18
33731;BME280;22931;48.636;9.000;2023-07-08T17:16:27;96173.56;;;32.39;29.31
33731;BME280;22931;48.636;9.000;2023-07-08T17:21:36;96168.28;;;32.35;28.73
33731;BME280;22931;48.636;9.000;2023-07-08T17:26:50;96169.03;;;32.36;29.27
33731;BME280;22931;48.636;9.000;2023-07-08T17:31:58;96172.81;;;32.53;29.30
33731;BME280;22931;48.636;9.000;2023-07-08T17:37:08;96172.41;;;32.31;29.00
33731;BME280;22931;48.636;9.000;2023-07-08T17:42:19;96174.88;;;32.29;29.49
33731;BME280;22931;48.636;9.000;2023-07-08T17:47:27;96183.50;;;32.27;29.23
33731;BME280;22931;48.636;9.000;2023-07-08T17:52:35;96186.22;;;32.27;29.67
33731;BME280;22931;48.636;9.000;2023-07-08T17:57:56;96191.22;;;32.29;29.70
